Terminal Aerodrome Forecast
Issued by NWS Omaha/Valley, NE

Home | Current Version | Previous Version | Text Only | Print | Product List | Glossary On
Versions: 1 2 3 4 5 6 7 8 9 10 11 12 13 14 15 16 17 18 19 20 21 22
000
FTUS43 KOAX 162302 AAC
TAFLNK
TAF AMD
KLNK 162302Z 1623/1718 31023G34KT P6SM SCT025 BKN060
     FM170300 34012KT P6SM SCT025 BKN060
      TEMPO 1703/1706 BKN025
     FM171200 34011KT P6SM BKN150=

USA.gov is the U.S. government's official web portal to all federal, state and local government web resources and services.